New Milford, New Jersey
Current Conditions -  °F | °C
As of 1:44 PM on Sunday 21 Dec 2014 (Local Time) from KTEB Reporting Station
Overcast Overcast  
Wind Chill: 31°   Ceiling: 3400
Heat Index: 36°   Visibility: 10mi
Dew Point: 27°   Wind: 6mph
Humidity: 70%   Direction: 340°NNW
Pressure: 30.28"   Gusts: NA
Location:  40.92°N, 74.03°W
Report Text: KTEB 211844Z 34005KT 10SM SCT018 OVC034 02/M03 A3028 RMK AO2
Loading
Personal Weather Stations






























Interactive Weather Map New forecast layout! Learn more

10-Day Weather Forecast

Advertisements
Track Severe Weather on mobile